createdAt,value
2023-01-10T00:01:29.333Z,99793.69
2023-01-10T00:04:30.883Z,99795.75
2023-01-10T00:07:32.353Z,99813.00
2023-01-10T00:10:35.133Z,99820.97
2023-01-10T00:13:36.565Z,99820.31
2023-01-10T00:16:39.333Z,99828.59
2023-01-10T00:19:40.836Z,99828.78
2023-01-10T00:22:42.315Z,99836.06
2023-01-10T00:25:43.881Z,99826.22
2023-01-10T00:28:45.340Z,99832.69
2023-01-10T00:31:47.894Z,99838.09
2023-01-10T00:34:49.509Z,99851.81
2023-01-10T00:37:52.067Z,99854.38
2023-01-10T00:40:53.907Z,99849.09
2023-01-10T00:43:58.330Z,99854.53
2023-01-10T00:46:59.865Z,99857.41
2023-01-10T00:50:01.894Z,99857.22
2023-01-10T00:53:03.628Z,99869.09
2023-01-10T00:56:05.456Z,99887.03
2023-01-10T00:59:07.026Z,99885.34
2023-01-10T01:02:08.601Z,99903.50
2023-01-10T01:05:10.168Z,99907.88
2023-01-10T01:08:12.726Z,99915.16
2023-01-10T01:11:14.243Z,99923.47
2023-01-10T01:14:15.721Z,99934.28
2023-01-10T01:17:17.466Z,99940.75
2023-01-10T01:20:20.875Z,99939.03
2023-01-10T01:23:23.010Z,99943.47
2023-01-10T01:26:25.264Z,99943.63
2023-01-10T01:29:38.575Z,99950.06
2023-01-10T01:32:44.098Z,99960.91
2023-01-10T01:35:47.938Z,99975.28
2023-01-10T01:38:49.400Z,99980.88
2023-01-10T01:42:00.482Z,99996.13
2023-01-10T01:45:08.319Z,99995.09
2023-01-10T01:48:21.284Z,100003.41
2023-01-10T01:51:27.687Z,100019.69
2023-01-10T01:54:39.993Z,100019.00
2023-01-10T01:57:41.699Z,100022.69
2023-01-10T02:00:43.503Z,100023.72
2023-01-10T02:03:49.667Z,100034.41
2023-01-10T02:06:53.591Z,100037.28
2023-01-10T02:10:00.691Z,100048.09
2023-01-10T02:13:08.165Z,100061.66
2023-01-10T02:16:10.095Z,100058.09
2023-01-10T02:19:39.512Z,100059.97
2023-01-10T02:22:59.909Z,100063.84
2023-01-10T02:26:20.134Z,100063.84
2023-01-10T02:29:41.138Z,100070.13
2023-01-10T02:33:05.832Z,100067.56
2023-01-10T02:36:16.177Z,100077.56
2023-01-10T02:39:27.946Z,100075.69
2023-01-10T02:42:36.727Z,100079.44
2023-01-10T02:45:48.502Z,100086.03
2023-01-10T02:48:50.016Z,100091.44
2023-01-10T02:51:51.577Z,100097.84
2023-01-10T02:54:58.648Z,100096.88
2023-01-10T02:58:20.972Z,100105.97
2023-01-10T03:01:48.268Z,100111.41
2023-01-10T03:04:58.899Z,100115.13
2023-01-10T03:08:15.360Z,100117.16
2023-01-10T03:11:36.972Z,100128.00
2023-01-10T03:14:40.772Z,100136.13
2023-01-10T03:17:45.257Z,100141.53
2023-01-10T03:20:49.449Z,100146.94
2023-01-10T03:23:56.146Z,100150.50
2023-01-10T03:27:33.001Z,100168.47
2023-01-10T03:30:52.622Z,100169.66
2023-01-10T03:33:55.008Z,100174.22
2023-01-10T03:37:06.044Z,100176.94
2023-01-10T03:40:22.448Z,100176.94
2023-01-10T03:44:01.371Z,100190.63
2023-01-10T03:47:14.816Z,100196.91
2023-01-10T03:50:20.733Z,100207.72
2023-01-10T03:53:22.463Z,100216.03
2023-01-10T03:56:23.940Z,100214.31
2023-01-10T03:59:30.035Z,100216.88
2023-01-10T04:02:32.439Z,100214.31
2023-01-10T04:05:33.958Z,100213.63
2023-01-10T04:08:35.572Z,100221.59
2023-01-10T04:11:37.512Z,100226.19
2023-01-10T04:14:39.190Z,100239.53
2023-01-10T04:17:40.720Z,100240.25
2023-01-10T04:20:42.188Z,100247.38
2023-01-10T04:23:43.927Z,100256.19
2023-01-10T04:26:45.549Z,100252.47
2023-01-10T04:29:47.202Z,100269.44
2023-01-10T04:32:48.750Z,100274.84
2023-01-10T04:35:51.790Z,100278.41
2023-01-10T04:38:53.814Z,100280.78
2023-01-10T04:41:55.354Z,100281.63
2023-01-10T04:44:56.856Z,100285.03
2023-01-10T04:47:59.965Z,100284.19
2023-01-10T04:51:01.531Z,100288.59
2023-01-10T04:54:03.197Z,100299.28
2023-01-10T04:57:06.536Z,100305.56
2023-01-10T05:00:09.444Z,100307.22
2023-01-10T05:03:11.144Z,100300.97
2023-01-10T05:06:12.686Z,100310.13
2023-01-10T05:09:14.166Z,100316.25
2023-01-10T05:12:15.903Z,100322.66
2023-01-10T05:15:17.532Z,100321.81
2023-01-10T05:18:19.017Z,100344.34
2023-01-10T05:21:20.531Z,100345.19
2023-01-10T05:24:22.387Z,100354.31
2023-01-10T05:27:23.860Z,100357.03
2023-01-10T05:30:25.451Z,100356.19
2023-01-10T05:33:26.929Z,100366.19
2023-01-10T05:36:28.602Z,100367.19
2023-01-10T05:39:30.113Z,100375.31
2023-01-10T05:42:31.600Z,100370.91
2023-01-10T05:45:33.251Z,100372.06
2023-01-10T05:48:34.842Z,100377.50
2023-01-10T05:51:36.624Z,100383.91
2023-01-10T05:54:38.129Z,100388.47
2023-01-10T05:57:39.664Z,100394.75
2023-01-10T06:00:41.209Z,100403.56
2023-01-10T06:03:42.829Z,100408.16
2023-01-10T06:06:44.341Z,100423.38
2023-01-10T06:09:46.634Z,100431.50
2023-01-10T06:12:49.697Z,100436.78
2023-01-10T06:15:52.218Z,100437.50
2023-01-10T06:18:54.051Z,100448.34
2023-01-10T06:21:55.591Z,100441.91
2023-01-10T06:24:57.238Z,100451.75
2023-01-10T06:27:58.698Z,100462.59
2023-01-10T06:31:00.231Z,100471.38
2023-01-10T06:34:01.849Z,100460.53
2023-01-10T06:37:03.493Z,100468.53
2023-01-10T06:40:06.201Z,100482.94
2023-01-10T06:43:07.818Z,100484.81
2023-01-10T06:46:10.074Z,100492.09
2023-01-10T06:49:11.761Z,100497.34
2023-01-10T06:52:13.263Z,100495.63
2023-01-10T06:55:14.878Z,100502.75
2023-01-10T06:58:18.438Z,100508.50
2023-01-10T07:01:21.528Z,100513.75
2023-01-10T07:04:23.166Z,100508.66
2023-01-10T07:07:24.725Z,100517.47
2023-01-10T07:10:26.303Z,100505.94
2023-01-10T07:13:27.833Z,100506.09
2023-01-10T07:16:29.444Z,100521.50
2023-01-10T07:19:31.017Z,100526.94
2023-01-10T07:22:32.543Z,100518.94
2023-01-10T07:25:34.017Z,100535.19
2023-01-10T07:28:35.827Z,100541.63
2023-01-10T07:31:37.439Z,100538.94
2023-01-10T07:34:38.978Z,100547.19
2023-01-10T07:37:40.429Z,100555.50
2023-01-10T07:40:41.973Z,100562.75
2023-01-10T07:43:43.495Z,100563.75
2023-01-10T07:46:44.994Z,100564.78
2023-01-10T07:49:46.446Z,100559.50
2023-01-10T07:52:47.953Z,100552.41
2023-01-10T07:55:50.123Z,100557.94
2023-01-10T07:58:51.678Z,100562.53
2023-01-10T08:01:54.038Z,100570.78
2023-01-10T08:04:55.544Z,100567.25
2023-01-10T08:08:00.000Z,100585.34
2023-01-10T08:11:05.013Z,100579.94
2023-01-10T08:14:06.663Z,100589.22
2023-01-10T08:17:08.223Z,100602.78
2023-01-10T08:20:10.262Z,100611.75
2023-01-10T08:23:11.726Z,100609.16
2023-01-10T08:26:13.266Z,100608.31
2023-01-10T08:29:16.023Z,100608.50
2023-01-10T08:32:17.527Z,100612.03
2023-01-10T08:35:19.066Z,100618.44
2023-01-10T08:38:20.534Z,100617.47
2023-01-10T08:41:22.524Z,100617.59
2023-01-10T08:44:23.997Z,100603.22
2023-01-10T08:47:25.441Z,100592.38
2023-01-10T08:50:27.009Z,100596.94
2023-01-10T08:53:31.855Z,100592.50
2023-01-10T08:56:33.483Z,100589.81
2023-01-10T08:59:34.983Z,100613.34
2023-01-10T09:02:36.484Z,100606.22
2023-01-10T09:05:38.123Z,100605.38
2023-01-10T09:08:39.685Z,100613.50
2023-01-10T09:11:41.951Z,100623.47
2023-01-10T09:14:43.533Z,100635.31
2023-01-10T09:17:45.038Z,100640.72
2023-01-10T09:20:46.679Z,100648.16
2023-01-10T09:23:48.302Z,100648.16
2023-01-10T09:26:49.781Z,100649.16
2023-01-10T09:29:51.220Z,100658.13
2023-01-10T09:32:53.923Z,100662.72
2023-01-10T09:35:58.059Z,100663.56
2023-01-10T09:38:59.580Z,100670.97
2023-01-10T09:42:45.028Z,100671.81
2023-01-10T09:46:01.649Z,100673.69
2023-01-10T09:49:26.082Z,100680.13
2023-01-10T09:52:38.360Z,100687.38
2023-01-10T09:55:42.091Z,100680.25
2023-01-10T09:58:45.092Z,100692.09
2023-01-10T10:01:48.691Z,100698.50
2023-01-10T10:05:00.783Z,100692.94
2023-01-10T10:08:02.517Z,100692.22
2023-01-10T10:11:35.522Z,100681.25
2023-01-10T10:14:56.892Z,100690.38
2023-01-10T10:18:39.936Z,100675.13
2023-01-10T10:22:02.471Z,100678.84
2023-01-10T10:25:25.403Z,100693.38
2023-01-10T10:28:46.544Z,100678.84
2023-01-10T10:32:14.037Z,100681.81
2023-01-10T10:35:21.450Z,100679.84
2023-01-10T10:38:29.873Z,100684.41
2023-01-10T10:41:39.701Z,100693.38
2023-01-10T10:44:45.847Z,100699.63
2023-01-10T10:47:55.791Z,100704.06
2023-01-10T10:51:34.099Z,100705.63
2023-01-10T10:54:37.205Z,100692.94
2023-01-10T10:57:43.439Z,100701.06
2023-01-10T11:00:54.453Z,100698.34
2023-01-10T11:04:00.712Z,100699.22
2023-01-10T11:07:02.158Z,100697.34
2023-01-10T11:10:14.783Z,100708.19
2023-01-10T11:13:34.534Z,100716.31
2023-01-10T11:16:41.347Z,100710.88
2023-01-10T11:19:55.651Z,100712.63
2023-01-10T11:22:58.017Z,100711.78
2023-01-10T11:26:00.315Z,100705.47
2023-01-10T11:29:13.866Z,100718.88
2023-01-10T11:32:19.005Z,100710.75
2023-01-10T11:35:28.489Z,100704.50
2023-01-10T11:38:31.002Z,100708.19
2023-01-10T11:41:34.268Z,100702.75
2023-01-10T11:44:35.899Z,100700.94
2023-01-10T11:47:45.245Z,100698.06
2023-01-10T11:50:53.722Z,100708.75
2023-01-10T11:54:00.851Z,100704.91
2023-01-10T11:57:14.472Z,100712.00
2023-01-10T12:00:16.706Z,100703.88
2023-01-10T12:03:45.835Z,100706.47
2023-01-10T12:06:50.996Z,100700.03
2023-01-10T12:10:02.913Z,100709.88
2023-01-10T12:13:15.631Z,100693.63
2023-01-10T12:16:30.531Z,100693.75
2023-01-10T12:19:32.266Z,100695.47
2023-01-10T12:22:39.113Z,100696.34
2023-01-10T12:25:42.698Z,100700.03
2023-01-10T12:28:51.361Z,100693.63
2023-01-10T12:31:55.516Z,100694.47
2023-01-10T12:35:02.279Z,100688.03
2023-01-10T12:38:22.035Z,100689.59
2023-01-10T12:41:48.412Z,100695.88
2023-01-10T12:44:58.305Z,100693.03
2023-01-10T12:48:38.495Z,100697.44
2023-01-10T12:51:41.683Z,100701.03
2023-01-10T12:54:46.309Z,100708.13
2023-01-10T12:57:53.751Z,100705.41
2023-01-10T13:01:00.044Z,100705.28
2023-01-10T13:04:12.550Z,100704.28
2023-01-10T13:07:16.312Z,100703.25
2023-01-10T13:10:21.815Z,100704.13
2023-01-10T13:13:41.910Z,100701.25
2023-01-10T13:16:50.228Z,100691.44
2023-01-10T13:20:16.712Z,100685.84
2023-01-10T13:23:29.991Z,100686.88
2023-01-10T13:26:55.693Z,100680.44
2023-01-10T13:29:57.429Z,100679.75
2023-01-10T13:33:06.061Z,100673.31
2023-01-10T13:36:18.490Z,100670.59
2023-01-10T13:39:45.612Z,100664.34
2023-01-10T13:43:29.336Z,100674.16
2023-01-10T13:46:30.838Z,100675.19
2023-01-10T13:49:41.672Z,100668.75
2023-01-10T13:52:43.125Z,100678.72
2023-01-10T13:55:53.317Z,100679.75
2023-01-10T13:59:13.615Z,100683.31
2023-01-10T14:02:31.762Z,100684.00
2023-01-10T14:05:33.728Z,100685.00
2023-01-10T14:08:35.511Z,100687.72
2023-01-10T14:11:43.218Z,100684.88
2023-01-10T14:14:52.709Z,100680.28
2023-01-10T14:18:08.018Z,100676.72
2023-01-10T14:21:19.387Z,100678.59
2023-01-10T14:24:28.085Z,100671.31
2023-01-10T14:27:42.585Z,100652.47
2023-01-10T14:30:45.706Z,100653.50
2023-01-10T14:33:48.105Z,100641.81
2023-01-10T14:37:01.021Z,100631.81
2023-01-10T14:40:06.344Z,100638.09
2023-01-10T14:43:13.840Z,100636.22
2023-01-10T14:46:29.692Z,100639.78
2023-01-10T14:49:36.666Z,100639.78
2023-01-10T14:52:42.425Z,100639.78
2023-01-10T14:55:43.916Z,100638.09
2023-01-10T14:58:45.401Z,100637.06
2023-01-10T15:01:51.980Z,100637.78
2023-01-10T15:04:56.895Z,100626.09
2023-01-10T15:08:22.322Z,100635.06
2023-01-10T15:11:26.821Z,100626.94
2023-01-10T15:14:29.961Z,100631.38
2023-01-10T15:17:31.852Z,100633.22
2023-01-10T15:20:34.158Z,100631.38
2023-01-10T15:23:40.686Z,100626.81
2023-01-10T15:26:42.054Z,100633.91
2023-01-10T15:29:46.794Z,100630.50
2023-01-10T15:32:51.363Z,100620.53
2023-01-10T15:35:53.653Z,100615.97
2023-01-10T15:38:55.217Z,100617.81
2023-01-10T15:42:01.076Z,100605.84
2023-01-10T15:45:30.438Z,100602.94
2023-01-10T15:48:43.631Z,100597.38
2023-01-10T15:51:48.034Z,100586.38
2023-01-10T15:54:49.925Z,100585.41
2023-01-10T15:57:51.932Z,100587.78
2023-01-10T16:00:55.034Z,100579.34
2023-01-10T16:03:59.237Z,100579.22
2023-01-10T16:07:12.106Z,100576.94
2023-01-10T16:10:26.651Z,100570.59
2023-01-10T16:13:28.575Z,100569.63
2023-01-10T16:16:30.384Z,100576.78
2023-01-10T16:19:32.313Z,100570.03
2023-01-10T16:22:35.179Z,100561.59
2023-01-10T16:25:39.178Z,100552.69
2023-01-10T16:28:40.817Z,100555.13
2023-01-10T16:31:42.636Z,100562.94
2023-01-10T16:34:44.220Z,100558.06
2023-01-10T16:37:49.353Z,100550.50
2023-01-10T16:40:55.017Z,100551.16
2023-01-10T16:43:56.742Z,100546.44
2023-01-10T16:46:58.481Z,100548.84
2023-01-10T16:49:59.998Z,100531.28
2023-01-10T16:53:01.824Z,100537.06
2023-01-10T16:56:03.286Z,100537.94
2023-01-10T16:59:06.384Z,100525.06
2023-01-10T17:02:17.667Z,100526.28
2023-01-10T17:05:19.321Z,100511.75
2023-01-10T17:08:24.472Z,100510.72
2023-01-10T17:11:30.311Z,100506.84
2023-01-10T17:14:35.213Z,100497.69
2023-01-10T17:17:37.326Z,100498.56
2023-01-10T17:20:38.811Z,100490.97
2023-01-10T17:23:41.779Z,100497.09
2023-01-10T17:26:43.678Z,100486.94
2023-01-10T17:29:45.130Z,100478.66
2023-01-10T17:32:46.610Z,100482.22
2023-01-10T17:35:48.120Z,100472.06
2023-01-10T17:38:49.601Z,100473.78
2023-01-10T17:41:51.074Z,100466.47
2023-01-10T17:44:52.613Z,100465.47
2023-01-10T17:47:54.099Z,100458.16
2023-01-10T17:50:58.386Z,100457.19
2023-01-10T17:53:59.993Z,100462.59
2023-01-10T17:57:02.624Z,100454.28
2023-01-10T18:00:06.010Z,100462.28
2023-01-10T18:03:08.316Z,100442.25
2023-01-10T18:06:18.993Z,100435.00
2023-01-10T18:09:24.870Z,100431.25
2023-01-10T18:12:26.336Z,100432.94
2023-01-10T18:15:27.886Z,100431.13
2023-01-10T18:18:30.335Z,100430.94
2023-01-10T18:21:31.807Z,100420.94
2023-01-10T18:24:33.323Z,100419.09
2023-01-10T18:27:36.014Z,100416.38
2023-01-10T18:30:37.981Z,100416.19
2023-01-10T18:33:39.884Z,100409.78
2023-01-10T18:36:42.661Z,100404.16
2023-01-10T18:39:44.304Z,100397.75
2023-01-10T18:42:46.942Z,100396.72
2023-01-10T18:45:48.571Z,100396.72
2023-01-10T18:48:52.471Z,100402.16
2023-01-10T18:51:53.997Z,100402.00
2023-01-10T18:54:55.521Z,100396.56
2023-01-10T18:57:57.128Z,100396.72
2023-01-10T19:01:13.578Z,100396.72
2023-01-10T19:04:15.321Z,100394.16
2023-01-10T19:07:16.979Z,100393.31
2023-01-10T19:10:18.968Z,100398.94
2023-01-10T19:13:20.615Z,100397.06
2023-01-10T19:16:29.056Z,100398.75
2023-01-10T19:19:30.583Z,100395.19
2023-01-10T19:22:32.116Z,100382.66
2023-01-10T19:25:35.183Z,100370.06
2023-01-10T19:28:36.815Z,100366.66
2023-01-10T19:31:38.411Z,100370.41
2023-01-10T19:34:39.916Z,100356.84
2023-01-10T19:37:41.433Z,100348.19
2023-01-10T19:40:42.950Z,100344.59
2023-01-10T19:43:44.442Z,100323.06
2023-01-10T19:46:47.493Z,100311.38
2023-01-10T19:49:49.121Z,100304.22
2023-01-10T19:52:50.570Z,100317.09
2023-01-10T19:56:04.646Z,100318.66
2023-01-10T19:59:07.509Z,100315.28
2023-01-10T20:02:12.815Z,100300.81
2023-01-10T20:05:14.378Z,100296.44
2023-01-10T20:08:15.862Z,100293.72
2023-01-10T20:11:18.067Z,100277.44
2023-01-10T20:14:21.501Z,100271.16
2023-01-10T20:17:23.072Z,100268.63
2023-01-10T20:20:24.578Z,100275.56
2023-01-10T20:23:26.055Z,100275.41
2023-01-10T20:26:27.670Z,100276.97
2023-01-10T20:29:29.170Z,100265.09
2023-01-10T20:32:30.653Z,100255.94
2023-01-10T20:35:32.180Z,100245.75
2023-01-10T20:38:35.707Z,100233.06
2023-01-10T20:41:37.304Z,100232.03
2023-01-10T20:44:40.092Z,100231.00
2023-01-10T20:47:41.550Z,100229.31
2023-01-10T20:50:46.595Z,100222.72
2023-01-10T20:53:49.246Z,100211.03
2023-01-10T20:56:50.931Z,100196.63
2023-01-10T20:59:52.425Z,100193.03
2023-01-10T21:02:54.094Z,100186.75
2023-01-10T21:05:55.785Z,100179.66
2023-01-10T21:08:57.322Z,100165.25
2023-01-10T21:12:10.573Z,100154.53
2023-01-10T21:15:20.546Z,100150.16
2023-01-10T21:18:26.855Z,100136.41
2023-01-10T21:21:28.387Z,100122.16
2023-01-10T21:24:29.947Z,100119.44
2023-01-10T21:27:31.860Z,100109.59
2023-01-10T21:30:33.384Z,100112.16
2023-01-10T21:33:35.116Z,100111.28
2023-01-10T21:36:36.631Z,100098.75
2023-01-10T21:39:38.186Z,100099.59
2023-01-10T21:42:44.664Z,100115.88
2023-01-10T21:45:46.166Z,100105.22
2023-01-10T21:48:47.644Z,100113.50
2023-01-10T21:51:49.163Z,100117.06
2023-01-10T21:54:50.698Z,100111.63
2023-01-10T21:57:52.310Z,100098.06
2023-01-10T22:00:58.729Z,100095.38
2023-01-10T22:04:00.264Z,100093.69
2023-01-10T22:07:01.875Z,100111.13
2023-01-10T22:10:08.153Z,100097.56
2023-01-10T22:13:09.659Z,100091.63
2023-01-10T22:16:11.260Z,100088.06
2023-01-10T22:19:13.451Z,100083.66
2023-01-10T22:22:15.103Z,100090.78
2023-01-10T22:25:16.750Z,100095.34
2023-01-10T22:28:18.233Z,100086.38
2023-01-10T22:31:19.725Z,100085.50
2023-01-10T22:34:21.637Z,100081.91
2023-01-10T22:37:23.135Z,100085.66
2023-01-10T22:40:24.613Z,100084.97
2023-01-10T22:43:26.125Z,100072.25
2023-01-10T22:46:27.720Z,100074.13
2023-01-10T22:49:29.187Z,100062.59
2023-01-10T22:52:30.809Z,100065.16
2023-01-10T22:55:34.257Z,100053.63
2023-01-10T22:58:36.133Z,100041.09
2023-01-10T23:01:37.640Z,100041.25
2023-01-10T23:04:39.093Z,100037.84
2023-01-10T23:07:40.602Z,100039.72
2023-01-10T23:10:42.113Z,100053.59
2023-01-10T23:13:44.989Z,100045.47
2023-01-10T23:16:46.576Z,100047.50
2023-01-10T23:19:48.105Z,100024.13
2023-01-10T23:22:49.667Z,100034.28
2023-01-10T23:26:01.525Z,100021.91
2023-01-10T23:29:03.239Z,100021.06
2023-01-10T23:32:04.955Z,100022.94
2023-01-10T23:35:06.764Z,100010.56
2023-01-10T23:38:08.289Z,100005.31
2023-01-10T23:41:09.852Z,99991.91
2023-01-10T23:44:11.365Z,99993.97
2023-01-10T23:47:12.885Z,99994.81
2023-01-10T23:50:14.675Z,99973.28
2023-01-10T23:53:16.863Z,99968.03
2023-01-10T23:56:18.438Z,99967.16
2023-01-10T23:59:23.231Z,99962.63
